Time;durP1;ratioP1;P1;durP2;ratioP2;P2;SDS_P1;SDS_P2;PMS_P1;PMS_P2;Temp;Humidity;BMP_temperature;BMP_pressure;BME280_temperature;BME280_humidity;BME280_pressure;Samples;Min_cycle;Max_cycle;Signal;HPM_P1;HPM_P2
2021/10/02 00:01:27;;;;;;;2.47;0.75;;;;;;;11.93;99.92;100478.47;6405876;23;20579;-79
2021/10/02 00:35:28;;;;;;;2.90;1.08;;;;;;;12.06;100.00;100470.03;6409392;23;20126;-78
2021/10/02 00:46:14;;;;;;;2.42;0.80;;;;;;;11.94;100.00;100454.81;6399693;23;20095;-76
2021/10/02 00:48:44;;;;;;;1.42;0.80;;;;;;;12.00;100.00;100454.59;6402999;23;20009;-77
2021/10/02 00:51:15;;;;;;;1.30;0.80;;;;;;;11.94;100.00;100459.22;6402896;23;20072;-76
2021/10/02 00:53:45;;;;;;;2.83;0.90;;;;;;;12.03;100.00;100451.81;6402849;23;20004;-76
2021/10/02 00:56:16;;;;;;;2.35;1.00;;;;;;;11.97;100.00;100448.63;6403023;23;20001;-76
2021/10/02 00:58:49;;;;;;;1.05;0.60;;;;;;;12.07;100.00;100456.00;6402809;23;20004;-77
2021/10/02 01:01:26;;;;;;;2.15;0.90;;;;;;;11.99;100.00;100450.22;6403301;23;20032;-76
2021/10/02 01:04:35;;;;;;;3.05;0.88;;;;;;;11.97;100.00;100441.59;6402145;23;20437;-76
2021/10/02 01:07:44;;;;;;;1.48;0.80;;;;;;;11.88;100.00;100436.78;6402874;23;20005;-76
2021/10/02 01:10:33;;;;;;;1.77;0.75;;;;;;;11.82;100.00;100439.63;6402192;23;20072;-78
2021/10/02 01:13:24;;;;;;;2.00;0.98;;;;;;;11.86;100.00;100441.22;6402893;23;20003;-76
2021/10/02 01:16:02;;;;;;;2.10;0.88;;;;;;;11.90;100.00;100437.56;6403073;23;20001;-76
2021/10/02 01:19:05;;;;;;;0.90;0.55;;;;;;;12.00;100.00;100433.63;6402573;23;20011;-77
2021/10/02 01:21:55;;;;;;;1.50;0.77;;;;;;;12.07;100.00;100439.44;6402480;23;20001;-76
2021/10/02 01:24:55;;;;;;;8.13;4.25;;;;;;;12.07;100.00;100440.28;6391046;23;20395;-78
2021/10/02 01:27:56;;;;;;;4.97;2.50;;;;;;;12.06;100.00;100438.59;6402728;23;20435;-77
2021/10/02 01:33:39;;;;;;;2.38;0.98;;;;;;;11.93;100.00;100436.56;6402410;23;20062;-76
2021/10/02 01:36:37;;;;;;;1.40;0.80;;;;;;;12.02;100.00;100437.03;6390669;23;20342;-79
2021/10/02 01:47:53;;;;;;;1.35;0.70;;;;;;;12.33;100.00;100426.88;6402584;23;20075;-79
2021/10/02 01:50:29;;;;;;;2.08;1.00;;;;;;;12.37;100.00;100428.47;6402336;23;20028;-77
2021/10/02 01:53:00;;;;;;;;;;;;;;;12.22;100.00;100423.91;6404692;23;20000;-77
2021/10/02 01:55:33;;;;;;;2.15;0.70;;;;;;;11.95;100.00;100419.03;6403095;23;20333;-77
2021/10/02 01:58:06;;;;;;;1.65;0.80;;;;;;;11.94;100.00;100418.16;6390692;23;20000;-77
2021/10/02 02:00:43;;;;;;;3.05;1.27;;;;;;;11.85;100.00;100426.44;6401954;23;20028;-77
2021/10/02 02:03:17;;;;;;;1.83;0.68;;;;;;;11.94;100.00;100428.63;6391714;23;20013;-77
2021/10/02 02:05:49;;;;;;;1.73;0.88;;;;;;;12.01;100.00;100431.84;6401410;23;20299;-77
2021/10/02 02:08:24;;;;;;;3.25;1.00;;;;;;;12.05;100.00;100436.03;6402401;23;20008;-77
2021/10/02 02:10:55;;;;;;;1.50;0.83;;;;;;;12.02;100.00;100437.03;6403510;23;20084;-77
2021/10/02 02:13:26;;;;;;;1.10;0.70;;;;;;;12.07;100.00;100432.44;6403191;23;20001;-77
2021/10/02 02:15:59;;;;;;;3.50;1.00;;;;;;;12.09;100.00;100435.81;6402477;23;20005;-77
2021/10/02 02:18:31;;;;;;;1.60;0.80;;;;;;;12.07;100.00;100432.44;6402372;23;20080;-80
2021/10/02 02:21:04;;;;;;;2.17;0.90;;;;;;;12.14;100.00;100431.22;6401833;23;20009;-79
2021/10/02 02:23:35;;;;;;;1.60;0.90;;;;;;;12.21;100.00;100422.19;6402375;23;20009;-79
2021/10/02 02:26:08;;;;;;;2.88;0.88;;;;;;;12.23;100.00;100420.34;6401660;23;20001;-77
2021/10/02 02:28:40;;;;;;;2.80;0.82;;;;;;;12.32;100.00;100417.31;6402456;23;20029;-77
2021/10/02 02:31:10;;;;;;;1.52;0.80;;;;;;;12.40;100.00;100419.59;6402621;23;20079;-78
2021/10/02 02:33:41;;;;;;;0.93;0.60;;;;;;;12.40;100.00;100409.97;6402161;23;20020;-77
2021/10/02 02:36:12;;;;;;;1.60;0.70;;;;;;;12.38;100.00;100403.94;6404756;23;20032;-79
2021/10/02 02:38:42;;;;;;;1.15;0.63;;;;;;;12.36;100.00;100416.28;6404336;23;20271;-80
2021/10/02 02:41:12;;;;;;;1.75;0.90;;;;;;;12.25;100.00;100412.41;6405124;23;20001;-77
2021/10/02 02:43:43;;;;;;;1.27;0.80;;;;;;;12.22;100.00;100413.41;6392486;23;20001;-77
2021/10/02 02:46:18;;;;;;;5.05;1.00;;;;;;;12.20;100.00;100414.41;6405031;23;20055;-77
2021/10/02 02:48:55;;;;;;;3.22;1.08;;;;;;;12.21;100.00;100418.72;6404605;23;20310;-80
2021/10/02 02:52:05;;;;;;;2.40;1.00;;;;;;;12.15;100.00;100422.44;6404116;23;20413;-76
2021/10/02 02:54:48;;;;;;;2.90;1.00;;;;;;;12.09;100.00;100400.94;6353243;23;20005;-77
2021/10/02 02:57:21;;;;;;;3.00;0.93;;;;;;;12.15;100.00;100405.91;6404887;23;20176;-77
2021/10/02 03:00:00;;;;;;;1.83;0.80;;;;;;;12.10;100.00;100400.84;6391990;23;20005;-76
2021/10/02 03:02:35;;;;;;;4.30;0.90;;;;;;;12.23;100.00;100404.63;6404466;23;20341;-79
2021/10/02 03:05:06;;;;;;;0.97;0.70;;;;;;;12.23;100.00;100406.38;6405108;23;20059;-77
2021/10/02 03:07:40;;;;;;;1.30;0.95;;;;;;;12.20;100.00;100404.78;6404295;23;20452;-81
2021/10/02 03:10:13;;;;;;;1.52;0.70;;;;;;;12.22;100.00;100408.19;6403477;23;20036;-78
2021/10/02 03:12:46;;;;;;;1.42;0.80;;;;;;;12.17;100.00;100415.41;6403521;23;20063;-77
2021/10/02 03:15:17;;;;;;;2.25;0.80;;;;;;;12.17;100.00;100409.28;6392466;23;20352;-77
2021/10/02 03:17:48;;;;;;;1.88;0.80;;;;;;;12.14;100.00;100420.75;6404082;23;20005;-78
2021/10/02 03:20:20;;;;;;;0.82;0.70;;;;;;;12.11;100.00;100420.91;6404474;23;20005;-78
2021/10/02 03:22:53;;;;;;;1.17;0.65;;;;;;;12.16;100.00;100408.44;6404301;23;20576;-77
2021/10/02 03:25:27;;;;;;;2.22;0.88;;;;;;;12.17;100.00;100415.41;6403540;23;20001;-78
2021/10/02 03:28:00;;;;;;;1.55;0.85;;;;;;;12.18;100.00;100406.63;6403717;23;20329;-76
2021/10/02 03:30:32;;;;;;;1.40;0.80;;;;;;;12.29;100.00;100408.75;6392179;23;20529;-79
2021/10/02 03:33:02;;;;;;;1.98;0.80;;;;;;;12.41;100.00;100413.41;6403754;23;20114;-78
2021/10/02 03:35:33;;;;;;;1.42;0.75;;;;;;;12.46;100.00;100412.28;6403771;23;20333;-77
2021/10/02 03:38:03;;;;;;;1.88;0.77;;;;;;;12.49;100.00;100412.16;6403445;23;20035;-77
2021/10/02 03:40:34;;;;;;;6.35;3.00;;;;;;;12.51;100.00;100417.34;6403496;23;20540;-78
2021/10/02 03:43:04;;;;;;;6.10;2.20;;;;;;;12.52;100.00;100414.66;6403893;23;20067;-78
2021/10/02 03:45:36;;;;;;;2.15;0.90;;;;;;;12.44;100.00;100411.53;6403087;23;20506;-80
2021/10/02 03:48:07;;;;;;;4.22;1.13;;;;;;;12.44;100.00;100398.41;6402994;23;20091;-78
2021/10/02 03:50:37;;;;;;;2.10;0.90;;;;;;;12.40;100.00;100403.84;6402906;23;20009;-79
2021/10/02 03:53:07;;;;;;;2.45;0.90;;;;;;;12.37;100.00;100415.34;6402865;23;20150;-79
2021/10/02 03:55:38;;;;;;;3.38;0.90;;;;;;;12.48;100.00;100431.41;6403054;23;20028;-76
2021/10/02 03:58:08;;;;;;;1.65;0.77;;;;;;;12.51;100.00;100426.06;6403515;23;20168;-77
2021/10/02 04:00:38;;;;;;;1.38;0.93;;;;;;;12.47;100.00;100427.09;6403485;23;20007;-78
2021/10/02 04:03:08;;;;;;;2.20;1.08;;;;;;;12.48;100.00;100425.34;6402908;23;20012;-77
2021/10/02 04:05:39;;;;;;;1.85;0.93;;;;;;;12.46;100.00;100425.41;6403484;23;20080;-76
2021/10/02 04:08:09;;;;;;;1.98;0.98;;;;;;;12.56;100.00;100424.06;6403261;23;20028;-77
2021/10/02 04:10:39;;;;;;;2.13;0.80;;;;;;;12.46;100.00;100422.78;6403762;23;20020;-77
2021/10/02 04:13:10;;;;;;;1.67;0.80;;;;;;;12.37;100.00;100423.22;6402663;23;20024;-77
2021/10/02 04:15:40;;;;;;;2.13;1.10;;;;;;;12.29;100.00;100414.00;6403127;23;20188;-77
2021/10/02 04:18:10;;;;;;;3.13;1.08;;;;;;;12.24;100.00;100416.81;6403350;23;19997;-77
2021/10/02 04:20:41;;;;;;;1.77;0.90;;;;;;;12.33;100.00;100411.16;6403032;23;20004;-77
2021/10/02 04:23:11;;;;;;;1.23;0.87;;;;;;;12.38;100.00;100406.56;6403220;23;20016;-77
2021/10/02 04:25:41;;;;;;;2.78;0.85;;;;;;;12.42;100.00;100408.13;6403293;23;20228;-77
2021/10/02 04:28:11;;;;;;;1.42;0.88;;;;;;;12.40;100.00;100414.34;6391492;23;20009;-77
2021/10/02 04:30:42;;;;;;;4.07;1.02;;;;;;;12.29;100.00;100409.59;6403970;23;20037;-77
2021/10/02 04:33:12;;;;;;;2.65;1.02;;;;;;;12.25;100.00;100409.78;6403722;23;20039;-76
2021/10/02 04:35:42;;;;;;;1.85;0.93;;;;;;;12.28;100.00;100414.91;6403208;23;20009;-76
2021/10/02 04:38:13;;;;;;;2.50;1.07;;;;;;;12.42;100.00;100423.84;6402889;23;20036;-76
2021/10/02 04:40:44;;;;;;;2.50;1.05;;;;;;;12.34;100.00;100412.88;6404034;23;20237;-78
2021/10/02 04:43:14;;;;;;;11.27;5.10;;;;;;;12.34;100.00;100419.88;6403133;23;20001;-77
2021/10/02 04:45:44;;;;;;;11.88;7.20;;;;;;;12.23;100.00;100424.72;6403599;23;20032;-77
2021/10/02 04:48:15;;;;;;;3.72;1.60;;;;;;;12.18;100.00;100419.72;6390850;23;20011;-76
2021/10/02 04:50:45;;;;;;;3.65;1.25;;;;;;;12.23;100.00;100425.59;6403303;23;20499;-77
2021/10/02 04:53:15;;;;;;;3.05;1.10;;;;;;;12.24;100.00;100423.81;6402834;23;20566;-77
2021/10/02 04:55:46;;;;;;;1.98;0.90;;;;;;;12.26;100.00;100425.47;6402762;23;20024;-77
2021/10/02 04:58:16;;;;;;;1.38;0.85;;;;;;;12.33;100.00;100419.00;6402663;23;20012;-78
2021/10/02 05:00:47;;;;;;;1.50;1.00;;;;;;;12.25;100.00;100408.03;6402651;23;20008;-77
2021/10/02 05:03:18;;;;;;;1.83;1.15;;;;;;;12.20;100.00;100410.03;6402598;23;20001;-77
2021/10/02 05:05:48;;;;;;;2.63;1.15;;;;;;;12.20;100.00;100411.78;6402723;23;20001;-77
2021/10/02 05:08:18;;;;;;;2.03;1.05;;;;;;;12.16;100.00;100413.66;6403031;23;20012;-78
2021/10/02 05:10:48;;;;;;;1.73;0.90;;;;;;;12.14;100.00;100399.78;6403431;23;20204;-77
2021/10/02 05:13:19;;;;;;;2.90;1.20;;;;;;;12.10;100.00;100398.22;6403533;23;20089;-76
2021/10/02 05:15:49;;;;;;;1.92;1.00;;;;;;;12.17;100.00;100404.06;6403643;23;20001;-76
2021/10/02 05:18:20;;;;;;;2.28;1.15;;;;;;;12.02;100.00;100409.97;6403562;23;20000;-78
2021/10/02 05:20:51;;;;;;;2.22;1.15;;;;;;;11.97;100.00;100402.31;6403418;23;20025;-77
2021/10/02 05:23:21;;;;;;;2.85;1.00;;;;;;;12.05;100.00;100410.69;6402833;23;20207;-77
2021/10/02 05:25:54;;;;;;;2.40;1.23;;;;;;;11.97;100.00;100397.06;6402421;23;20001;-77
2021/10/02 05:28:25;;;;;;;2.03;1.17;;;;;;;11.91;100.00;100407.81;6402186;23;20075;-77
2021/10/02 05:30:55;;;;;;;2.15;1.20;;;;;;;11.88;100.00;100397.50;6402923;23;20001;-77
2021/10/02 05:33:25;;;;;;;4.15;1.20;;;;;;;11.89;100.00;100408.78;6402599;23;20088;-77
2021/10/02 05:35:56;;;;;;;1.88;1.00;;;;;;;11.92;100.00;100408.69;6402257;23;20039;-77
2021/10/02 05:38:26;;;;;;;2.70;0.95;;;;;;;11.82;100.00;100402.13;6402331;23;20314;-77
2021/10/02 05:40:57;;;;;;;1.85;0.98;;;;;;;11.80;100.00;100393.50;6401542;23;20035;-77
2021/10/02 05:43:27;;;;;;;2.63;0.82;;;;;;;11.91;100.00;100386.88;6402606;23;20336;-77
2021/10/02 05:45:57;;;;;;;3.85;0.95;;;;;;;11.96;100.00;100394.53;6401557;23;20084;-77
2021/10/02 05:48:27;;;;;;;1.73;1.10;;;;;;;12.04;100.00;100395.91;6402412;23;20071;-77
2021/10/02 05:50:58;;;;;;;2.28;1.00;;;;;;;11.93;100.00;100395.50;6401065;23;20243;-77
2021/10/02 05:53:28;;;;;;;1.92;1.00;;;;;;;12.01;100.00;100398.66;6402440;23;20009;-77
2021/10/02 05:55:58;;;;;;;2.72;1.30;;;;;;;12.03;100.00;100402.06;6402076;23;20001;-77
2021/10/02 05:58:29;;;;;;;2.78;1.20;;;;;;;12.02;100.00;100399.50;6389867;23;20005;-77
2021/10/02 06:00:59;;;;;;;4.07;1.00;;;;;;;11.98;100.00;100403.19;6402191;23;20001;-77
2021/10/02 06:03:29;;;;;;;1.98;0.90;;;;;;;12.10;100.00;100403.47;6401538;23;20008;-77
2021/10/02 06:06:00;;;;;;;2.53;0.90;;;;;;;12.10;100.00;100413.94;6401336;23;20009;-77
2021/10/02 06:08:30;;;;;;;2.55;1.00;;;;;;;12.15;100.00;100411.97;6401895;23;20375;-77
2021/10/02 06:11:01;;;;;;;4.10;0.95;;;;;;;12.13;100.00;100403.34;6402009;23;20370;-77
2021/10/02 06:13:33;;;;;;;3.50;0.90;;;;;;;12.09;100.00;100404.41;6401455;23;20054;-77
2021/10/02 06:16:03;;;;;;;3.17;1.10;;;;;;;12.10;100.00;100408.72;6401776;23;20481;-77
2021/10/02 06:18:34;;;;;;;2.55;1.20;;;;;;;12.10;100.00;100403.47;6402092;23;20093;-77
2021/10/02 06:21:06;;;;;;;3.22;0.90;;;;;;;12.25;100.00;100397.56;6401870;23;20012;-77
2021/10/02 06:23:40;;;;;;;2.30;1.05;;;;;;;12.18;100.00;100398.75;6401745;23;20001;-77
2021/10/02 06:26:11;;;;;;;2.83;0.85;;;;;;;12.28;100.00;100410.50;6401894;23;20322;-77
2021/10/02 06:28:41;;;;;;;1.73;1.00;;;;;;;12.35;100.00;100417.19;6401579;23;20005;-77
2021/10/02 06:31:11;;;;;;;2.58;0.95;;;;;;;12.40;100.00;100411.72;6402431;23;20003;-77
2021/10/02 06:33:42;;;;;;;2.83;1.10;;;;;;;12.38;100.00;100414.44;6401735;23;20257;-77
2021/10/02 06:36:12;;;;;;;3.33;0.82;;;;;;;12.51;100.00;100423.44;6402245;23;20039;-77
2021/10/02 06:38:43;;;;;;;2.25;1.00;;;;;;;12.61;100.00;100416.84;6401920;23;20027;-77
2021/10/02 06:41:13;;;;;;;2.17;1.05;;;;;;;12.65;100.00;100412.31;6401676;23;20001;-77
2021/10/02 06:43:44;;;;;;;1.77;0.98;;;;;;;12.65;100.00;100415.78;6401047;23;20041;-77
2021/10/02 06:46:14;;;;;;;3.58;1.17;;;;;;;12.65;100.00;100412.31;6399677;23;20027;-78
2021/10/02 06:48:44;;;;;;;2.95;0.98;;;;;;;12.68;100.00;100422.66;6395517;23;20008;-79
2021/10/02 06:51:15;;;;;;;2.60;1.20;;;;;;;12.66;100.00;100420.09;6395500;23;19997;-79
2021/10/02 06:53:45;;;;;;;4.35;1.20;;;;;;;12.72;100.00;100429.44;6394278;23;20011;-79
2021/10/02 06:56:16;;;;;;;1.90;1.05;;;;;;;12.80;100.00;100432.56;6394774;23;20001;-79
2021/10/02 06:58:46;;;;;;;4.47;1.15;;;;;;;12.81;100.00;100435.13;6394761;23;20071;-80
2021/10/02 07:01:16;;;;;;;2.42;1.10;;;;;;;12.79;100.00;100426.47;6407726;23;20001;-80
2021/10/02 07:03:46;;;;;;;3.17;1.10;;;;;;;12.79;100.00;100429.09;6394019;23;20005;-79
2021/10/02 07:06:17;;;;;;;3.65;1.30;;;;;;;12.86;100.00;100430.53;6393370;23;20433;-79
2021/10/02 07:08:47;;;;;;;2.42;1.20;;;;;;;12.87;100.00;100421.72;6394946;23;20001;-79
2021/10/02 07:11:17;;;;;;;2.03;1.02;;;;;;;12.95;100.00;100429.28;6394428;23;20005;-79
2021/10/02 07:13:48;;;;;;;3.60;1.20;;;;;;;13.16;100.00;100442.19;6405850;23;20332;-79
2021/10/02 07:16:18;;;;;;;1.90;1.00;;;;;;;13.19;100.00;100447.28;6394821;23;20005;-79
2021/10/02 07:18:48;;;;;;;2.15;1.00;;;;;;;13.23;100.00;100435.75;6394185;23;20012;-80
2021/10/02 07:21:19;;;;;;;2.72;0.90;;;;;;;13.23;100.00;100427.88;6407158;23;20043;-78
2021/10/02 07:23:49;;;;;;;2.42;0.90;;;;;;;13.22;100.00;100431.41;6396334;23;20005;-79
2021/10/02 07:26:19;;;;;;;1.92;1.00;;;;;;;13.28;100.00;100437.22;6397597;23;20441;-79
2021/10/02 07:28:50;;;;;;;2.58;0.95;;;;;;;13.45;100.00;100433.75;6409053;23;20073;-79
2021/10/02 07:31:20;;;;;;;1.73;0.90;;;;;;;13.43;100.00;100446.13;6397044;23;19997;-80
2021/10/02 07:33:51;;;;;;;3.17;0.95;;;;;;;13.59;100.00;100450.50;6407257;23;20001;-79
2021/10/02 07:36:21;;;;;;;3.17;1.10;;;;;;;13.68;100.00;100451.84;6396603;23;20035;-80
2021/10/02 07:38:52;;;;;;;2.13;0.70;;;;;;;13.59;100.00;100434.75;6407759;23;20007;-80
2021/10/02 07:41:25;;;;;;;3.38;1.08;;;;;;;13.59;100.00;100436.56;6408097;23;20088;-80
2021/10/02 07:43:58;;;;;;;5.63;1.10;;;;;;;13.60;100.00;100438.25;6406530;23;20515;-80
2021/10/02 07:46:30;;;;;;;2.78;0.90;;;;;;;13.63;100.00;100438.09;6396601;23;20005;-80
2021/10/02 07:49:01;;;;;;;1.48;0.90;;;;;;;13.69;100.00;100443.03;6395916;23;20001;-80
2021/10/02 07:51:32;;;;;;;4.63;1.20;;;;;;;13.58;100.00;100437.47;6407915;23;20027;-80
2021/10/02 07:54:04;;;;;;;3.13;0.85;;;;;;;13.57;100.00;100438.41;6409039;23;20322;-80
2021/10/02 07:56:35;;;;;;;1.88;0.95;;;;;;;13.57;100.00;100435.78;6395373;23;20008;-80
2021/10/02 07:59:06;;;;;;;2.50;0.93;;;;;;;13.68;100.00;100446.59;6406522;23;20040;-80
2021/10/02 08:01:37;;;;;;;3.35;1.10;;;;;;;13.78;100.00;100443.41;6407707;23;20032;-81
2021/10/02 08:04:08;;;;;;;2.55;0.90;;;;;;;13.89;100.00;100443.72;6406498;23;20385;-80
2021/10/02 08:06:38;;;;;;;2.78;0.95;;;;;;;13.91;100.00;100443.66;6395659;23;20001;-80
2021/10/02 08:09:09;;;;;;;1.58;0.80;;;;;;;13.94;100.00;100438.25;6395309;23;20001;-80
2021/10/02 08:11:41;;;;;;;1.45;0.80;;;;;;;14.05;100.00;100430.66;6396224;23;19993;-80
2021/10/02 08:14:11;;;;;;;2.20;1.00;;;;;;;14.25;100.00;100433.13;6407077;23;19997;-80
2021/10/02 08:16:45;;;;;;;2.33;1.10;;;;;;;14.59;100.00;100427.78;6395165;23;20001;-80
2021/10/02 08:19:19;;;;;;;1.52;0.80;;;;;;;14.92;100.00;100424.13;6406098;23;20001;-80
2021/10/02 08:21:50;;;;;;;1.73;0.90;;;;;;;15.11;100.00;100417.75;6396600;23;20100;-80
2021/10/02 08:24:21;;;;;;;2.30;0.80;;;;;;;15.19;100.00;100409.44;6395054;23;19997;-80
2021/10/02 08:26:55;;;;;;;2.92;0.80;;;;;;;15.63;100.00;100408.59;6407731;23;20001;-80
2021/10/02 08:29:25;;;;;;;2.90;0.82;;;;;;;16.04;100.00;100401.69;6406605;23;20001;-81
2021/10/02 08:31:58;;;;;;;6.95;0.93;;;;;;;16.52;99.35;100408.44;6405879;23;20333;-80
2021/10/02 08:34:28;;;;;;;1.83;0.70;;;;;;;16.79;97.74;100407.53;6391604;23;20064;-81
2021/10/02 08:36:59;;;;;;;1.67;0.80;;;;;;;17.00;94.76;100403.53;6392010;23;20007;-80
2021/10/02 08:39:29;;;;;;;2.30;0.80;;;;;;;16.62;94.80;100398.97;6393986;23;20005;-81
2021/10/02 08:42:01;;;;;;;2.72;0.95;;;;;;;16.63;93.86;100395.38;6403733;23;20020;-81
2021/10/02 08:44:33;;;;;;;2.30;1.00;;;;;;;16.69;93.58;100401.13;6399394;23;20032;-81
2021/10/02 08:47:03;;;;;;;2.78;0.80;;;;;;;16.39;93.36;100403.03;6392780;23;20364;-81
2021/10/02 08:49:43;;;;;;;2.60;1.20;;;;;;;16.15;94.98;100396.63;6400817;23;20012;-78
2021/10/02 08:52:15;;;;;;;3.88;0.80;;;;;;;16.22;94.62;100395.28;6394503;23;20076;-79
2021/10/02 08:54:51;;;;;;;1.80;0.70;;;;;;;16.20;95.59;100394.53;6392321;23;20009;-79
2021/10/02 08:57:24;;;;;;;2.28;0.75;;;;;;;16.09;95.45;100399.63;6408122;23;20000;-80
2021/10/02 08:59:55;;;;;;;2.30;0.70;;;;;;;15.93;96.29;100409.41;6394180;23;20091;-81
2021/10/02 09:02:45;;;;;;;1.77;0.90;;;;;;;16.02;97.60;100411.47;6398748;23;20005;-81
2021/10/02 09:05:18;;;;;;;1.42;0.70;;;;;;;15.96;96.83;100411.00;6370604;23;20091;-81
2021/10/02 09:07:52;;;;;;;1.60;0.68;;;;;;;15.76;97.88;100416.59;6394009;23;20032;-81
2021/10/02 09:10:24;;;;;;;1.95;0.90;;;;;;;15.66;98.94;100408.41;6392966;23;20001;-80
2021/10/02 09:12:54;;;;;;;2.17;1.00;;;;;;;15.56;99.85;100409.88;6391486;23;20032;-80
2021/10/02 09:15:27;;;;;;;2.92;0.90;;;;;;;15.53;100.00;100404.78;6392046;23;20005;-80
2021/10/02 09:17:58;;;;;;;2.03;0.82;;;;;;;15.53;99.97;100406.59;6391552;23;20001;-80
2021/10/02 09:20:29;;;;;;;2.47;0.65;;;;;;;15.66;99.31;100410.16;6392985;23;20400;-80
2021/10/02 09:23:03;;;;;;;2.08;1.00;;;;;;;15.59;99.81;100409.72;6402093;23;20047;-80
2021/10/02 09:25:34;;;;;;;1.63;0.88;;;;;;;15.77;100.00;100419.16;6393467;23;20094;-79
2021/10/02 09:28:13;;;;;;;1.77;0.80;;;;;;;15.89;100.00;100417.59;6392971;23;20024;-80
2021/10/02 09:30:46;;;;;;;3.17;0.77;;;;;;;15.85;98.52;100411.63;6392600;23;20245;-80
2021/10/02 09:33:32;;;;;;;2.13;1.00;;;;;;;16.25;99.14;100402.19;6395127;23;20558;-80
2021/10/02 09:36:20;;;;;;;1.45;0.70;;;;;;;16.26;97.03;100395.97;6393953;23;20028;-80
2021/10/02 09:38:53;;;;;;;2.33;1.00;;;;;;;16.50;98.31;100400.59;6403967;23;20061;-81
2021/10/02 09:41:29;;;;;;;1.65;0.90;;;;;;;16.70;94.74;100397.53;6401253;23;20092;-80
2021/10/02 09:44:06;;;;;;;2.70;0.85;;;;;;;16.80;94.13;100396.88;6397854;23;20464;-80
2021/10/02 09:46:36;;;;;;;1.23;0.70;;;;;;;16.68;95.48;100402.06;6393461;23;20048;-81
2021/10/02 09:49:17;;;;;;;1.70;0.77;;;;;;;16.69;94.46;100395.84;6396856;23;20084;-81
2021/10/02 09:51:48;;;;;;;2.08;0.88;;;;;;;16.75;94.94;100384.91;6393402;23;20468;-80
2021/10/02 09:54:38;;;;;;;1.60;0.80;;;;;;;16.60;96.22;100382.41;6394844;23;19997;-80
2021/10/02 09:57:14;;;;;;;1.08;0.60;;;;;;;16.73;94.44;100386.78;6393879;23;20337;-80
2021/10/02 09:59:45;;;;;;;1.77;0.70;;;;;;;16.83;94.35;100380.00;6398838;23;20434;-81
2021/10/02 10:02:18;;;;;;;1.98;0.73;;;;;;;16.78;94.35;100385.56;6400440;23;20012;-81
2021/10/02 10:04:54;;;;;;;1.50;0.70;;;;;;;16.77;92.09;100380.41;6399232;23;20005;-81
2021/10/02 10:07:24;;;;;;;1.98;0.60;;;;;;;16.49;91.21;100374.28;6392361;23;20012;-79
2021/10/02 10:10:05;;;;;;;0.93;0.60;;;;;;;16.63;93.88;100371.63;6403356;23;20009;-79
2021/10/02 10:12:37;;;;;;;1.42;0.63;;;;;;;16.73;93.28;100364.84;6392953;23;20251;-79
2021/10/02 10:15:25;;;;;;;1.38;0.60;;;;;;;16.67;91.96;100373.13;6404663;23;20072;-79
2021/10/02 10:17:57;;;;;;;0.93;0.50;;;;;;;16.84;92.28;100371.13;6394795;23;20027;-79
2021/10/02 10:20:34;;;;;;;1.10;0.52;;;;;;;16.91;92.35;100361.84;6390822;23;20005;-79
2021/10/02 10:23:06;;;;;;;0.90;0.50;;;;;;;16.91;91.60;100364.50;6395776;23;20091;-79
2021/10/02 10:25:53;;;;;;;3.17;0.63;;;;;;;16.77;93.29;100375.94;6390278;23;20012;-79
2021/10/02 10:28:26;;;;;;;1.75;0.57;;;;;;;16.89;93.84;100371.66;6394327;23;20107;-79
2021/10/02 10:31:12;;;;;;;1.08;0.60;;;;;;;16.87;91.91;100377.06;6402885;23;20008;-80
2021/10/02 10:33:48;;;;;;;1.52;0.60;;;;;;;17.06;91.89;100361.72;6389546;23;20072;-79
2021/10/02 10:36:22;;;;;;;1.50;0.70;;;;;;;17.10;90.85;100373.78;6400466;23;20051;-80
2021/10/02 10:38:52;;;;;;;4.47;1.00;;;;;;;17.05;92.41;100364.44;6398582;23;20083;-79
2021/10/02 10:41:24;;;;;;;1.98;0.68;;;;;;;17.28;91.52;100366.44;6400565;23;20437;-80
2021/10/02 10:43:55;;;;;;;1.92;0.70;;;;;;;17.15;92.05;100362.91;6398511;23;20174;-80
2021/10/02 10:46:27;;;;;;;1.85;0.70;;;;;;;17.37;91.18;100357.94;6400134;23;20013;-81
2021/10/02 10:48:58;;;;;;;2.20;0.80;;;;;;;17.48;90.55;100350.97;6401236;23;20099;-80
2021/10/02 10:51:30;;;;;;;2.38;0.80;;;;;;;17.75;89.48;100357.03;6411639;23;20039;-80
2021/10/02 10:54:00;;;;;;;2.10;0.80;;;;;;;17.55;91.30;100351.41;6402898;23;20001;-80
2021/10/02 10:56:40;;;;;;;1.55;0.80;;;;;;;17.69;90.31;100340.75;6413258;23;20053;-79
2021/10/02 10:59:12;;;;;;;0.90;0.63;;;;;;;17.84;89.81;100337.06;6405204;23;20009;-80
2021/10/02 11:01:43;;;;;;;0.75;0.50;;;;;;;17.80;89.54;100336.41;6400550;23;20005;-80
2021/10/02 11:04:31;;;;;;;1.25;0.63;;;;;;;17.74;90.89;100330.69;6401447;23;20031;-80
2021/10/02 11:07:02;;;;;;;1.20;0.50;;;;;;;17.92;87.84;100321.50;6401560;23;20053;-79
2021/10/02 11:09:35;;;;;;;3.55;0.60;;;;;;;18.23;88.79;100310.47;6401135;23;20005;-80
2021/10/02 11:12:10;;;;;;;0.80;0.55;;;;;;;18.34;88.34;100319.34;6399565;23;20001;-80
2021/10/02 11:14:46;;;;;;;0.77;0.68;;;;;;;18.40;85.42;100331.31;6402496;23;20020;-79
2021/10/02 11:17:33;;;;;;;1.88;0.57;;;;;;;18.24;84.83;100328.03;6410523;23;20024;-80
2021/10/02 11:20:22;;;;;;;1.05;0.55;;;;;;;18.10;86.47;100339.59;6398060;23;20043;-80
2021/10/02 11:23:30;;;;;;;1.23;0.60;;;;;;;17.95;86.95;100335.38;6400440;23;20005;-80
2021/10/02 11:26:25;;;;;;;2.38;0.88;;;;;;;17.96;85.83;100331.75;6398192;23;20334;-80
2021/10/02 11:29:01;;;;;;;2.03;0.75;;;;;;;17.77;87.31;100323.41;6397509;23;20307;-80
2021/10/02 11:31:34;;;;;;;1.05;0.70;;;;;;;18.09;87.45;100315.88;6398774;23;19997;-80
2021/10/02 11:34:19;;;;;;;1.95;0.80;;;;;;;18.16;88.43;100306.56;6395530;23;20036;-81
2021/10/02 11:36:55;;;;;;;1.30;0.60;;;;;;;18.02;87.05;100304.03;6410920;23;20008;-80
2021/10/02 11:39:25;;;;;;;0.98;0.50;;;;;;;17.83;88.37;100303.63;6407330;23;20008;-80
2021/10/02 11:42:07;;;;;;;1.10;0.67;;;;;;;18.11;88.15;100298.94;6411258;23;20015;-79
2021/10/02 11:44:49;;;;;;;1.50;0.70;;;;;;;18.06;89.10;100292.28;6398221;23;20087;-80
2021/10/02 11:47:26;;;;;;;1.58;0.80;;;;;;;18.14;88.44;100295.25;6398534;23;20248;-79
2021/10/02 11:50:11;;;;;;;0.70;0.60;;;;;;;17.98;87.26;100276.97;6396006;23;20009;-80
2021/10/02 11:52:41;;;;;;;0.98;0.68;;;;;;;18.04;86.31;100271.22;6396365;23;20005;-80
2021/10/02 11:55:45;;;;;;;1.10;0.67;;;;;;;18.50;87.81;100263.53;6397431;23;20009;-80
2021/10/02 11:58:16;;;;;;;2.15;0.70;;;;;;;18.70;87.41;100269.03;6357116;23;20009;-80
2021/10/02 12:00:54;;;;;;;2.00;0.75;;;;;;;18.81;83.99;100266.47;6393160;23;20012;-79
2021/10/02 12:03:30;;;;;;;1.58;0.80;;;;;;;18.88;84.90;100270.34;6405881;23;19997;-79
2021/10/02 12:06:02;;;;;;;;;;;;;;;18.91;84.23;100270.97;6394007;23;20015;-79
2021/10/02 12:08:33;;;;;;;0.90;0.60;;;;;;;19.07;84.49;100262.72;6420684;23;19945;-79
2021/10/02 12:11:10;;;;;;;1.48;0.70;;;;;;;19.34;83.33;100266.81;6399059;23;20005;-80
2021/10/02 12:13:45;;;;;;;1.13;0.60;;;;;;;19.35;83.86;100275.59;6393093;23;20013;-80
2021/10/02 12:16:24;;;;;;;1.63;0.77;;;;;;;19.40;84.74;100263.69;6392611;23;20012;-81
2021/10/02 12:19:07;;;;;;;0.95;0.60;;;;;;;19.04;82.81;100263.78;6392998;23;20252;-80
2021/10/02 12:21:47;;;;;;;2.15;1.10;;;;;;;19.02;84.70;100268.38;6398134;23;20001;-80
2021/10/02 12:24:20;;;;;;;3.15;1.30;;;;;;;18.75;83.15;100257.16;6391359;23;20484;-79
2021/10/02 12:26:53;;;;;;;3.08;1.23;;;;;;;18.79;83.34;100255.97;6397322;23;20016;-80
2021/10/02 12:29:37;;;;;;;1.20;0.40;;;;;;;18.92;83.89;100245.31;6392572;23;20428;-80
2021/10/02 12:32:13;;;;;;;1.15;0.68;;;;;;;18.71;85.63;100246.91;6392257;23;20192;-80
2021/10/02 12:34:58;;;;;;;1.35;0.45;;;;;;;18.84;83.80;100250.34;6390016;23;20013;-80
2021/10/02 12:37:34;;;;;;;2.38;0.50;;;;;;;18.73;84.00;100241.50;6392568;23;20397;-79
2021/10/02 12:40:13;;;;;;;2.60;0.90;;;;;;;18.49;84.42;100246.78;6392129;23;20001;-79
2021/10/02 12:42:47;;;;;;;1.92;0.68;;;;;;;18.46;84.45;100236.44;6392536;23;20044;-80